createdAt,value
2018-11-02T00:01:57.877Z,47.07
2018-11-02T00:04:26.571Z,48.17
2018-11-02T00:06:55.259Z,45.17
2018-11-02T00:09:23.947Z,45.67
2018-11-02T00:11:52.662Z,40.17
2018-11-02T00:14:21.354Z,45.40
2018-11-02T00:16:50.002Z,49.30
2018-11-02T00:19:22.784Z,49.40
2018-11-02T00:21:51.433Z,47.83
2018-11-02T00:24:20.102Z,48.23
2018-11-02T00:26:48.830Z,43.23
2018-11-02T00:29:17.486Z,46.97
2018-11-02T00:31:46.261Z,46.30
2018-11-02T00:34:14.896Z,43.63
2018-11-02T00:36:43.721Z,47.77
2018-11-02T00:39:12.401Z,44.97
2018-11-02T00:41:41.118Z,48.70
2018-11-02T00:44:10.659Z,45.87
2018-11-02T00:46:39.868Z,48.07
2018-11-02T00:49:09.239Z,45.30
2018-11-02T00:51:38.489Z,48.47
2018-11-02T00:54:07.460Z,47.20
2018-11-02T00:56:36.225Z,44.87
2018-11-02T00:59:04.940Z,47.37
2018-11-02T01:01:33.621Z,50.57
2018-11-02T01:04:02.356Z,44.33
2018-11-02T01:06:31.044Z,44.17
2018-11-02T01:08:59.716Z,45.67
2018-11-02T01:11:28.416Z,47.80
2018-11-02T01:13:57.738Z,45.63
2018-11-02T01:16:26.485Z,46.03
2018-11-02T01:18:55.170Z,50.87
2018-11-02T01:21:23.869Z,47.93
2018-11-02T01:23:52.582Z,47.37
2018-11-02T01:26:21.232Z,47.60
2018-11-02T01:28:49.926Z,49.83
2018-11-02T01:31:18.640Z,45.40
2018-11-02T01:33:47.298Z,45.60
2018-11-02T01:36:16.007Z,44.50
2018-11-02T01:38:44.684Z,52.73
2018-11-02T01:41:13.692Z,50.63
2018-11-02T01:43:42.358Z,55.33
2018-11-02T01:46:11.329Z,49.73
2018-11-02T01:48:40.067Z,51.60
2018-11-02T01:51:08.725Z,51.17
2018-11-02T01:53:37.430Z,55.87
2018-11-02T01:56:06.121Z,54.33
2018-11-02T01:58:34.784Z,53.27
2018-11-02T02:01:03.493Z,53.70
2018-11-02T02:03:32.149Z,52.77
2018-11-02T02:06:00.866Z,52.67
2018-11-02T02:08:29.549Z,52.07
2018-11-02T02:10:58.254Z,49.73
2018-11-02T02:13:27.103Z,51.90
2018-11-02T02:15:55.726Z,49.23
2018-11-02T02:18:24.364Z,53.70
2018-11-02T02:20:53.120Z,49.97
2018-11-02T02:23:21.836Z,50.53
2018-11-02T02:25:50.541Z,52.93
2018-11-02T02:28:19.200Z,54.63
2018-11-02T02:30:47.922Z,51.33
2018-11-02T02:33:16.655Z,55.90
2018-11-02T02:35:45.373Z,51.43
2018-11-02T02:38:14.133Z,49.90
2018-11-02T02:40:42.824Z,53.40
2018-11-02T02:43:11.507Z,56.27
2018-11-02T02:45:40.214Z,48.50
2018-11-02T02:48:08.945Z,50.17
2018-11-02T02:50:37.799Z,53.47
2018-11-02T02:53:06.645Z,49.07
2018-11-02T02:55:35.298Z,48.00
2018-11-02T02:58:04.021Z,48.90
2018-11-02T03:00:32.716Z,47.63
2018-11-02T03:03:01.447Z,50.73
2018-11-02T03:05:30.180Z,48.07
2018-11-02T03:07:58.869Z,44.70
2018-11-02T03:10:27.653Z,50.77
2018-11-02T03:12:56.344Z,48.17
2018-11-02T03:15:25.059Z,48.23
2018-11-02T03:17:53.825Z,48.13
2018-11-02T03:20:22.559Z,49.73
2018-11-02T03:22:51.245Z,47.77
2018-11-02T03:25:20.053Z,49.67
2018-11-02T03:27:48.735Z,51.40
2018-11-02T03:30:18.291Z,47.30
2018-11-02T03:32:47.017Z,46.77
2018-11-02T03:35:15.767Z,45.53
2018-11-02T03:37:44.453Z,50.20
2018-11-02T03:40:13.177Z,56.03
2018-11-02T03:42:42.212Z,55.30
2018-11-02T03:45:10.904Z,49.40
2018-11-02T03:47:39.676Z,52.73
2018-11-02T03:50:09.692Z,48.03
2018-11-02T03:52:38.709Z,48.87
2018-11-02T03:55:08.161Z,50.20
2018-11-02T03:57:36.874Z,49.03
2018-11-02T04:00:10.514Z,46.00
2018-11-02T04:02:39.544Z,52.10
2018-11-02T04:05:08.984Z,46.70
2018-11-02T04:07:37.728Z,48.20
2018-11-02T04:10:08.145Z,46.77
2018-11-02T04:12:36.863Z,52.97
2018-11-02T04:15:05.725Z,48.00
2018-11-02T04:17:34.457Z,48.80
2018-11-02T04:20:03.176Z,50.03
2018-11-02T04:22:31.962Z,48.37
2018-11-02T04:25:00.685Z,50.17
2018-11-02T04:27:29.488Z,51.60
2018-11-02T04:29:58.185Z,46.17
2018-11-02T04:32:26.928Z,47.00
2018-11-02T04:34:55.802Z,52.83
2018-11-02T04:37:24.563Z,48.67
2018-11-02T04:39:53.249Z,45.73
2018-11-02T04:42:22.030Z,50.67
2018-11-02T04:44:50.680Z,51.63
2018-11-02T04:47:19.433Z,50.00
2018-11-02T04:49:48.149Z,45.83
2018-11-02T04:52:16.857Z,50.50
2018-11-02T04:54:45.574Z,44.97
2018-11-02T04:57:14.413Z,49.40
2018-11-02T04:59:43.128Z,47.90
2018-11-02T05:02:11.835Z,50.47
2018-11-02T05:04:40.563Z,49.80
2018-11-02T05:07:09.265Z,46.97
2018-11-02T05:09:38.022Z,46.93
2018-11-02T05:12:07.034Z,56.00
2018-11-02T05:14:36.049Z,52.10
2018-11-02T05:17:04.768Z,66.17
2018-11-02T05:19:33.488Z,49.57
2018-11-02T05:22:02.177Z,49.73
2018-11-02T05:24:31.001Z,54.83
2018-11-02T05:26:59.757Z,46.47
2018-11-02T05:29:28.524Z,53.20
2018-11-02T05:31:57.213Z,54.43
2018-11-02T05:34:25.953Z,52.27
2018-11-02T05:36:54.695Z,50.07
2018-11-02T05:39:23.776Z,48.17
2018-11-02T05:41:52.551Z,51.80
2018-11-02T05:44:21.258Z,46.07
2018-11-02T05:46:49.984Z,50.87
2018-11-02T05:49:18.690Z,49.40
2018-11-02T05:51:47.393Z,50.67
2018-11-02T05:54:16.135Z,45.87
2018-11-02T05:56:44.836Z,51.63
2018-11-02T05:59:13.496Z,49.07
2018-11-02T06:01:42.212Z,55.60
2018-11-02T06:04:10.925Z,50.17
2018-11-02T06:06:39.688Z,47.23
2018-11-02T06:09:08.977Z,51.10
2018-11-02T06:11:38.396Z,48.90
2018-11-02T06:14:07.110Z,48.73
2018-11-02T06:16:35.872Z,54.17
2018-11-02T06:19:04.584Z,54.07
2018-11-02T06:25:35.751Z,56.87
2018-11-02T06:28:54.303Z,56.17
2018-11-02T06:31:22.996Z,55.37
2018-11-02T06:33:51.685Z,59.93
2018-11-02T06:36:20.357Z,56.20
2018-11-02T06:38:49.157Z,54.63
2018-11-02T06:41:17.815Z,55.87
2018-11-02T06:43:46.502Z,56.67
2018-11-02T06:46:15.330Z,60.70
2018-11-02T06:48:44.192Z,56.03
2018-11-02T06:51:12.891Z,58.13
2018-11-02T06:53:41.591Z,57.30
2018-11-02T06:57:39.869Z,52.33
2018-11-02T07:00:11.369Z,49.03
2018-11-02T07:02:41.051Z,53.70
2018-11-02T07:05:10.433Z,47.70
2018-11-02T07:07:39.498Z,51.93
2018-11-02T07:10:09.298Z,53.40
2018-11-02T07:12:38.247Z,50.47
2018-11-02T07:15:07.716Z,63.20
2018-11-02T07:17:36.434Z,57.30
2018-11-02T07:20:06.173Z,49.87
2018-11-02T07:22:34.891Z,56.23
2018-11-02T07:25:03.720Z,55.87
2018-11-02T07:27:32.432Z,50.57
2018-11-02T07:30:01.294Z,53.17
2018-11-02T07:32:30.050Z,54.97
2018-11-02T07:34:58.726Z,50.17
2018-11-02T07:37:27.476Z,54.33
2018-11-02T07:39:56.134Z,50.00
2018-11-02T07:42:24.993Z,48.57
2018-11-02T07:44:53.647Z,47.97
2018-11-02T07:47:22.416Z,51.17
2018-11-02T07:49:52.151Z,49.87
2018-11-02T07:52:20.869Z,50.83
2018-11-02T07:54:49.550Z,49.70
2018-11-02T07:57:18.318Z,51.90
2018-11-02T07:59:47.089Z,47.53
2018-11-02T08:02:15.783Z,49.57
2018-11-02T08:04:44.485Z,53.57
2018-11-02T08:07:13.310Z,51.20
2018-11-02T08:09:42.336Z,49.33
2018-11-02T08:12:11.092Z,46.10
2018-11-02T08:14:39.840Z,49.20
2018-11-02T08:17:08.753Z,48.97
2018-11-02T08:19:38.110Z,51.37
2018-11-02T08:22:06.877Z,47.43
2018-11-02T08:24:35.688Z,41.60
2018-11-02T08:27:04.397Z,46.07
2018-11-02T08:29:33.110Z,47.90
2018-11-02T08:32:01.898Z,44.77
2018-11-02T08:34:30.505Z,44.33
2018-11-02T08:36:59.285Z,44.20
2018-11-02T08:39:27.969Z,40.13
2018-11-02T08:41:57.049Z,45.10
2018-11-02T08:44:25.736Z,45.83
2018-11-02T08:46:54.481Z,46.20
2018-11-02T08:49:23.272Z,42.73
2018-11-02T08:51:52.016Z,44.87
2018-11-02T08:54:20.670Z,43.73
2018-11-02T08:56:49.360Z,37.47
2018-11-02T08:59:18.148Z,39.60
2018-11-02T09:01:46.761Z,40.90
2018-11-02T09:04:15.424Z,37.27
2018-11-02T09:06:44.158Z,39.40
2018-11-02T09:09:13.096Z,43.73
2018-11-02T09:11:41.796Z,42.97
2018-11-02T09:14:10.484Z,45.40
2018-11-02T09:16:39.285Z,40.43
2018-11-02T09:19:08.235Z,48.97
2018-11-02T09:21:37.025Z,43.03
2018-11-02T09:24:05.941Z,40.47
2018-11-02T09:26:34.624Z,33.63
2018-11-02T09:29:03.426Z,34.97
2018-11-02T09:31:32.135Z,32.73
2018-11-02T09:34:00.842Z,31.07
2018-11-02T09:36:29.605Z,34.10
2018-11-02T09:38:58.304Z,29.47
2018-11-02T09:41:27.024Z,30.17
2018-11-02T09:43:55.866Z,32.00
2018-11-02T09:46:24.576Z,33.03
2018-11-02T09:48:54.079Z,35.67
2018-11-02T09:51:22.788Z,33.40
2018-11-02T09:53:53.799Z,29.43
2018-11-02T09:56:22.545Z,29.30
2018-11-02T09:58:51.266Z,29.20
2018-11-02T10:01:20.292Z,27.53
2018-11-02T10:03:49.053Z,26.80
2018-11-02T10:06:17.970Z,27.20
2018-11-02T10:08:46.691Z,29.63
2018-11-02T10:11:15.692Z,29.57
2018-11-02T10:13:44.884Z,23.97
2018-11-02T10:16:13.617Z,26.30
2018-11-02T10:18:42.373Z,21.67
2018-11-02T10:21:14.311Z,23.87
2018-11-02T10:23:43.072Z,24.67
2018-11-02T10:26:11.801Z,22.27
2018-11-02T10:28:40.643Z,19.53
2018-11-02T10:31:10.707Z,20.30
2018-11-02T10:33:39.714Z,16.45
2018-11-02T10:36:08.571Z,19.65
2018-11-02T10:38:38.776Z,21.70
2018-11-02T10:41:08.365Z,21.60
2018-11-02T10:43:38.199Z,25.52
2018-11-02T10:46:07.040Z,16.67
2018-11-02T10:48:35.814Z,16.35
2018-11-02T10:51:04.624Z,18.90
2018-11-02T10:53:33.306Z,21.87
2018-11-02T10:56:02.063Z,21.27
2018-11-02T10:58:30.716Z,18.17
2018-11-02T11:01:04.682Z,17.82
2018-11-02T11:03:33.293Z,19.37
2018-11-02T11:06:02.237Z,20.40
2018-11-02T11:08:30.920Z,22.13
2018-11-02T11:10:59.656Z,17.92
2018-11-02T11:13:28.704Z,16.05
2018-11-02T11:15:57.207Z,17.10
2018-11-02T11:18:25.916Z,21.23
2018-11-02T11:20:55.016Z,19.30
2018-11-02T11:23:24.341Z,17.82
2018-11-02T11:25:53.086Z,19.45
2018-11-02T11:28:21.945Z,16.10
2018-11-02T11:30:50.664Z,19.45
2018-11-02T11:33:20.092Z,18.60
2018-11-02T11:35:49.663Z,17.00
2018-11-02T11:38:20.040Z,14.25
2018-11-02T11:40:48.838Z,18.23
2018-11-02T11:43:17.550Z,20.30
2018-11-02T11:45:46.526Z,17.62
2018-11-02T11:48:16.120Z,18.75
2018-11-02T11:50:45.064Z,15.48
2018-11-02T11:53:14.708Z,16.55
2018-11-02T11:55:43.431Z,16.27
2018-11-02T11:58:12.177Z,14.83
2018-11-02T12:00:41.012Z,14.20
2018-11-02T12:03:09.785Z,12.55
2018-11-02T12:05:39.695Z,13.93
2018-11-02T12:08:08.757Z,18.70
2018-11-02T12:10:37.507Z,12.43
2018-11-02T12:13:06.462Z,12.47
2018-11-02T12:15:35.366Z,16.00
2018-11-02T12:18:04.213Z,15.08
2018-11-02T12:20:32.912Z,13.32
2018-11-02T12:23:02.960Z,16.48
2018-11-02T12:25:32.005Z,13.62
2018-11-02T12:28:06.134Z,15.20
2018-11-02T12:30:34.858Z,13.65
2018-11-02T12:33:03.540Z,14.25
2018-11-02T12:35:32.284Z,13.70
2018-11-02T12:38:01.042Z,14.90
2018-11-02T12:40:29.728Z,18.73
2018-11-02T12:42:58.466Z,17.25
2018-11-02T12:45:27.176Z,16.55
2018-11-02T12:47:55.940Z,12.93
2018-11-02T12:50:27.402Z,15.60
2018-11-02T12:52:57.410Z,14.78
2018-11-02T12:55:26.177Z,13.10
2018-11-02T12:57:54.926Z,13.60
2018-11-02T13:00:24.733Z,25.62
2018-11-02T13:02:54.436Z,15.88
2018-11-02T13:05:23.141Z,13.83
2018-11-02T13:07:51.855Z,17.40
2018-11-02T13:10:21.840Z,15.25
2018-11-02T13:12:50.564Z,16.15
2018-11-02T13:15:20.829Z,17.07
2018-11-02T13:17:50.135Z,12.90
2018-11-02T13:20:19.091Z,15.08
2018-11-02T13:22:48.631Z,12.18
2018-11-02T13:25:19.465Z,16.70
2018-11-02T13:27:48.910Z,16.75
2018-11-02T13:30:17.807Z,17.57
2018-11-02T13:32:46.478Z,16.53
2018-11-02T13:35:16.677Z,18.25
2018-11-02T13:37:45.864Z,13.87
2018-11-02T13:40:16.309Z,25.63
2018-11-02T13:42:45.150Z,15.65
2018-11-02T13:45:15.752Z,14.90
2018-11-02T13:47:45.791Z,18.32
2018-11-02T13:50:14.718Z,13.83
2018-11-02T13:52:44.362Z,15.15
2018-11-02T13:55:13.566Z,15.20
2018-11-02T13:57:42.485Z,13.45
2018-11-02T14:00:16.269Z,13.68
2018-11-02T14:02:45.109Z,15.65
2018-11-02T14:05:15.032Z,14.10
2018-11-02T14:07:44.101Z,22.27
2018-11-02T14:10:13.324Z,18.50
2018-11-02T14:12:42.305Z,16.93
2018-11-02T14:15:13.474Z,15.72
2018-11-02T14:17:43.873Z,15.10
2018-11-02T14:24:49.920Z,16.17
2018-11-02T14:27:18.731Z,18.03
2018-11-02T14:29:47.464Z,13.33
2018-11-02T14:32:16.217Z,17.02
2018-11-02T14:34:45.068Z,14.93
2018-11-02T14:37:13.949Z,17.07
2018-11-02T14:39:42.656Z,14.87
2018-11-02T14:42:11.770Z,16.10
2018-11-02T14:44:40.448Z,14.70
2018-11-02T14:47:09.149Z,16.37
2018-11-02T14:49:37.801Z,12.23
2018-11-02T14:52:06.673Z,22.10
2018-11-02T14:54:35.365Z,13.87
2018-11-02T14:57:04.040Z,16.10
2018-11-02T14:59:32.793Z,15.07
2018-11-02T15:02:01.452Z,15.43
2018-11-02T15:04:30.143Z,16.83
2018-11-02T15:06:58.869Z,20.70
2018-11-02T15:09:27.596Z,19.27
2018-11-02T15:11:56.323Z,23.83
2018-11-02T15:14:25.008Z,18.43
2018-11-02T15:16:53.700Z,18.63
2018-11-02T15:19:22.445Z,18.10
2018-11-02T15:21:51.158Z,15.33
2018-11-02T15:24:19.941Z,14.33
2018-11-02T15:26:48.611Z,16.17
2018-11-02T15:29:17.323Z,13.30
2018-11-02T15:31:46.062Z,14.40
2018-11-02T15:34:14.842Z,16.70
2018-11-02T15:36:43.489Z,15.13
2018-11-02T15:39:13.154Z,12.60
2018-11-02T15:41:42.259Z,11.90
2018-11-02T15:44:11.121Z,17.90
2018-11-02T15:46:39.929Z,12.40
2018-11-02T15:49:08.663Z,13.53
2018-11-02T15:51:37.374Z,11.93
2018-11-02T15:54:06.486Z,12.87
2018-11-02T15:56:35.276Z,13.67
2018-11-02T15:59:04.091Z,12.60
2018-11-02T16:01:32.789Z,15.27
2018-11-02T16:04:37.862Z,12.37
2018-11-02T16:07:06.787Z,11.40
2018-11-02T16:09:35.711Z,17.47
2018-11-02T16:12:04.502Z,16.30
2018-11-02T16:14:33.395Z,13.80
2018-11-02T16:19:25.764Z,14.07
2018-11-02T16:31:02.129Z,19.73
2018-11-02T16:33:30.790Z,14.57
2018-11-02T16:35:59.433Z,14.20
2018-11-02T16:38:28.157Z,13.40
2018-11-02T16:40:56.825Z,11.10
2018-11-02T16:43:25.569Z,10.17
2018-11-02T16:45:54.290Z,12.07
2018-11-02T16:48:22.948Z,11.40
2018-11-02T16:50:51.632Z,12.50
2018-11-02T16:53:20.318Z,11.33
2018-11-02T16:55:49.088Z,13.83
2018-11-02T16:58:17.801Z,17.13
2018-11-02T17:00:46.524Z,15.60
2018-11-02T17:03:15.292Z,14.03
2018-11-02T17:05:44.057Z,12.00
2018-11-02T17:08:12.858Z,12.37
2018-11-02T17:10:41.557Z,12.73
2018-11-02T17:13:10.192Z,14.13
2018-11-02T17:15:38.913Z,11.87
2018-11-02T17:18:07.738Z,18.40
2018-11-02T17:20:36.436Z,14.03
2018-11-02T17:23:05.241Z,15.77
2018-11-02T17:25:34.009Z,21.83
2018-11-02T17:28:03.330Z,22.10
2018-11-02T17:30:32.044Z,26.30
2018-11-02T17:33:00.745Z,29.03
2018-11-02T17:35:44.190Z,27.13
2018-11-02T17:38:12.850Z,28.93
2018-11-02T17:40:41.537Z,30.63
2018-11-02T17:43:10.284Z,30.13
2018-11-02T17:45:39.000Z,28.33
2018-11-02T17:48:07.684Z,29.67
2018-11-02T17:50:37.075Z,32.00
2018-11-02T17:53:05.883Z,32.30
2018-11-02T17:55:34.537Z,26.30
2018-11-02T17:58:03.337Z,28.50
2018-11-02T18:00:32.235Z,26.53
2018-11-02T18:03:00.929Z,31.83
2018-11-02T18:05:29.669Z,28.20
2018-11-02T18:07:58.404Z,26.52
2018-11-02T18:10:27.148Z,26.80
2018-11-02T18:12:55.882Z,27.13
2018-11-02T18:15:24.616Z,29.03
2018-11-02T18:17:53.359Z,26.63
2018-11-02T18:20:22.076Z,26.73
2018-11-02T18:22:50.802Z,29.70
2018-11-02T18:25:19.646Z,27.00
2018-11-02T18:27:48.387Z,34.17
2018-11-02T18:30:17.166Z,29.17
2018-11-02T18:32:45.855Z,31.83
2018-11-02T18:35:14.594Z,27.37
2018-11-02T18:37:43.372Z,27.13
2018-11-02T18:40:13.350Z,28.20
2018-11-02T18:42:42.301Z,29.90
2018-11-02T18:45:12.660Z,27.03
2018-11-02T18:47:48.739Z,41.33
2018-11-02T18:50:18.671Z,26.57
2018-11-02T18:52:47.945Z,29.17
2018-11-02T18:55:17.190Z,31.40
2018-11-02T18:57:46.020Z,31.73
2018-11-02T19:00:14.927Z,29.73
2018-11-02T19:02:43.737Z,31.17
2018-11-02T19:05:15.702Z,33.83
2018-11-02T19:07:44.507Z,33.97
2018-11-02T19:10:13.460Z,31.37
2018-11-02T19:12:42.757Z,31.70
2018-11-02T19:15:14.178Z,34.90
2018-11-02T19:17:43.176Z,36.70
2018-11-02T19:20:12.553Z,33.43
2018-11-02T19:22:41.248Z,38.03
2018-11-02T19:25:11.277Z,34.47
2018-11-02T19:27:40.017Z,32.97
2018-11-02T19:30:10.501Z,30.93
2018-11-02T19:32:39.338Z,35.93
2018-11-02T19:35:08.757Z,35.03
2018-11-02T19:37:37.490Z,34.10
2018-11-02T19:40:08.312Z,34.43
2018-11-02T19:42:37.012Z,36.33
2018-11-02T19:45:05.887Z,35.97
2018-11-02T19:48:09.929Z,34.80
2018-11-02T19:50:38.659Z,36.90
2018-11-02T19:53:08.361Z,33.47
2018-11-02T19:55:37.182Z,37.50
2018-11-02T19:58:06.203Z,37.83
2018-11-02T20:00:35.045Z,35.53
2018-11-02T20:03:03.732Z,35.10
2018-11-02T20:05:32.413Z,36.73
2018-11-02T20:08:01.750Z,34.90
2018-11-02T20:10:30.446Z,37.83
2018-11-02T20:12:59.159Z,39.17
2018-11-02T20:15:27.898Z,36.93
2018-11-02T20:17:56.646Z,33.87
2018-11-02T20:20:25.466Z,36.33
2018-11-02T20:22:54.097Z,38.80
2018-11-02T20:25:22.777Z,35.90
2018-11-02T20:27:52.400Z,39.03
2018-11-02T20:30:21.938Z,39.97
2018-11-02T20:32:50.671Z,38.50
2018-11-02T20:35:20.506Z,37.87
2018-11-02T20:37:49.225Z,40.07
2018-11-02T20:40:19.028Z,37.97
2018-11-02T20:42:47.857Z,38.67
2018-11-02T20:45:17.067Z,42.43
2018-11-02T20:47:54.727Z,36.57
2018-11-02T20:50:23.474Z,42.63
2018-11-02T20:52:52.763Z,45.80
2018-11-02T20:55:21.456Z,40.80
2018-11-02T20:57:50.144Z,42.50
2018-11-02T21:00:20.348Z,42.03
2018-11-02T21:02:49.141Z,42.57
2018-11-02T21:05:18.913Z,43.00
2018-11-02T21:07:48.238Z,43.63
2018-11-02T21:10:18.285Z,46.93
2018-11-02T21:12:47.168Z,41.03
2018-11-02T21:15:17.245Z,45.40
2018-11-02T21:17:46.108Z,45.93
2018-11-02T21:20:16.349Z,46.00
2018-11-02T21:22:45.105Z,43.40
2018-11-02T21:25:14.450Z,44.17
2018-11-02T21:27:43.750Z,46.40
2018-11-02T21:30:15.711Z,46.93
2018-11-02T21:32:45.097Z,46.50
2018-11-02T21:35:14.252Z,46.90
2018-11-02T21:37:42.941Z,44.87
2018-11-02T21:40:13.676Z,47.90
2018-11-02T21:42:42.946Z,46.23
2018-11-02T21:45:12.469Z,47.43
2018-11-02T21:47:41.209Z,45.50
2018-11-02T21:50:10.632Z,45.57
2018-11-02T21:52:39.383Z,45.80
2018-11-02T21:55:08.765Z,48.57
2018-11-02T21:57:37.667Z,44.53
2018-11-02T22:00:13.117Z,48.60
2018-11-02T22:02:42.020Z,43.53
2018-11-02T22:05:11.994Z,47.40
2018-11-02T22:07:41.196Z,46.50
2018-11-02T22:10:10.741Z,44.97
2018-11-02T22:12:39.745Z,48.97
2018-11-02T22:15:09.236Z,45.60
2018-11-02T22:17:37.942Z,44.27
2018-11-02T22:20:08.664Z,49.47
2018-11-02T22:22:37.359Z,47.73
2018-11-02T22:25:07.156Z,43.97
2018-11-02T22:27:36.009Z,50.93
2018-11-02T22:30:13.174Z,44.10
2018-11-02T22:32:42.001Z,47.17
2018-11-02T22:35:11.022Z,48.93
2018-11-02T22:37:40.220Z,48.90
2018-11-02T22:40:10.365Z,47.97
2018-11-02T22:42:39.471Z,43.60
2018-11-02T22:45:08.752Z,54.60
2018-11-02T22:47:37.453Z,47.10
2018-11-02T22:50:07.048Z,42.53
2018-11-02T22:52:35.976Z,45.07
2018-11-02T22:55:04.807Z,46.67
2018-11-02T22:57:33.551Z,44.77
2018-11-02T23:00:02.344Z,43.23
2018-11-02T23:02:31.352Z,47.47
2018-11-02T23:05:00.071Z,43.20
2018-11-02T23:07:28.779Z,42.00
2018-11-02T23:09:57.492Z,43.33
2018-11-02T23:12:26.238Z,41.60
2018-11-02T23:14:54.944Z,46.17
2018-11-02T23:17:23.685Z,44.97
2018-11-02T23:19:52.424Z,46.57
